createdAt,value
2019-03-01T00:01:04.752Z,98787.23
2019-03-01T00:03:34.150Z,98783.89
2019-03-01T00:06:22.519Z,98777.88
2019-03-01T00:09:21.608Z,98766.54
2019-03-01T00:11:59.235Z,98757.66
2019-03-01T00:14:36.978Z,98751.50
2019-03-01T00:17:08.659Z,98748.79
2019-03-01T00:20:07.801Z,98744.59
2019-03-01T00:22:56.910Z,98743.51
2019-03-01T00:25:34.484Z,98738.22
2019-03-01T00:28:15.255Z,98736.32
2019-03-01T00:30:49.618Z,98736.98
2019-03-01T00:33:27.249Z,98726.11
2019-03-01T00:35:58.918Z,98731.67
2019-03-01T00:38:39.372Z,98725.33
2019-03-01T00:41:27.527Z,98728.80
2019-03-01T00:44:04.780Z,98716.28
2019-03-01T00:46:33.462Z,98704.72
2019-03-01T00:49:02.161Z,98704.78
2019-03-01T00:51:30.868Z,98700.83
2019-03-01T00:53:59.569Z,98703.45
2019-03-01T00:56:28.194Z,98698.05
2019-03-01T00:58:56.891Z,98701.12
2019-03-01T01:01:25.648Z,98702.88
2019-03-01T01:03:54.275Z,98708.53
2019-03-01T01:06:22.953Z,98714.66
2019-03-01T01:08:51.651Z,98706.50
2019-03-01T01:11:20.345Z,98708.81
2019-03-01T01:13:48.986Z,98702.42
2019-03-01T01:16:17.673Z,98703.77
2019-03-01T01:18:46.360Z,98690.22
2019-03-01T01:21:15.108Z,98692.83
2019-03-01T01:23:43.741Z,98687.81
2019-03-01T01:26:12.484Z,98691.17
2019-03-01T01:28:41.041Z,98691.92
2019-03-01T01:31:09.746Z,98690.66
2019-03-01T01:33:38.374Z,98691.89
2019-03-01T01:36:07.145Z,98684.30
2019-03-01T01:38:35.716Z,98690.18
2019-03-01T01:41:04.446Z,98672.50
2019-03-01T01:43:33.139Z,98681.91
2019-03-01T01:46:01.771Z,98677.25
2019-03-01T01:48:30.523Z,98678.20
2019-03-01T01:50:59.239Z,98680.28
2019-03-01T01:53:27.993Z,98671.69
2019-03-01T01:55:56.747Z,98672.34
2019-03-01T01:58:25.435Z,98670.84
2019-03-01T02:00:54.063Z,98680.81
2019-03-01T02:03:22.814Z,98677.64
2019-03-01T02:05:51.563Z,98682.70
2019-03-01T02:08:20.271Z,98682.58
2019-03-01T02:10:48.889Z,98682.54
2019-03-01T02:13:17.595Z,98684.84
2019-03-01T02:15:46.352Z,98695.39
2019-03-01T02:18:15.034Z,98698.68
2019-03-01T02:20:43.798Z,98698.57
2019-03-01T02:23:12.432Z,98703.82
2019-03-01T02:25:41.171Z,98703.73
2019-03-01T02:28:09.863Z,98704.61
2019-03-01T02:30:44.111Z,98687.67
2019-03-01T02:33:12.823Z,98693.89
2019-03-01T02:35:41.387Z,98689.33
2019-03-01T02:38:10.103Z,98692.62
2019-03-01T02:40:38.850Z,98685.80
2019-03-01T02:43:07.550Z,98693.43
2019-03-01T02:45:36.268Z,98692.70
2019-03-01T02:48:04.967Z,98694.85
2019-03-01T02:50:33.714Z,98692.24
2019-03-01T02:53:02.398Z,98705.52
2019-03-01T02:55:31.181Z,98693.55
2019-03-01T02:57:59.776Z,98701.33
2019-03-01T03:00:30.702Z,98703.13
2019-03-01T03:02:59.496Z,98699.14
2019-03-01T03:05:28.324Z,98701.28
2019-03-01T03:07:58.523Z,98695.28
2019-03-01T03:10:27.216Z,98699.77
2019-03-01T03:13:04.219Z,98696.70
2019-03-01T03:15:34.586Z,98692.26
2019-03-01T03:18:03.120Z,98704.66
2019-03-01T03:20:31.867Z,98710.27
2019-03-01T03:23:00.509Z,98703.61
2019-03-01T03:25:29.147Z,98715.44
2019-03-01T03:27:57.895Z,98721.43
2019-03-01T03:30:26.647Z,98725.55
2019-03-01T03:32:55.293Z,98725.02
2019-03-01T03:35:23.846Z,98719.61
2019-03-01T03:37:52.556Z,98715.27
2019-03-01T03:40:21.251Z,98715.52
2019-03-01T03:42:49.905Z,98715.63
2019-03-01T03:45:19.182Z,98715.52
2019-03-01T03:47:47.990Z,98709.42
2019-03-01T03:50:17.088Z,98702.42
2019-03-01T03:52:45.788Z,98710.91
2019-03-01T03:55:16.549Z,98719.17
2019-03-01T03:57:45.356Z,98716.95
2019-03-01T04:00:17.731Z,98716.08
2019-03-01T04:02:46.397Z,98720.65
2019-03-01T04:05:15.157Z,98713.23
2019-03-01T04:07:43.997Z,98720.31
2019-03-01T04:10:13.500Z,98719.41
2019-03-01T04:12:42.257Z,98719.69
2019-03-01T04:15:17.379Z,98707.73
2019-03-01T04:17:46.127Z,98707.84
2019-03-01T04:20:20.822Z,98700.91
2019-03-01T04:22:49.454Z,98705.00
2019-03-01T04:25:18.154Z,98699.22
2019-03-01T04:27:46.775Z,98699.84
2019-03-01T04:30:17.151Z,98692.11
2019-03-01T04:32:46.087Z,98690.84
2019-03-01T04:35:15.233Z,98697.01
2019-03-01T04:37:43.926Z,98683.24
2019-03-01T04:40:14.557Z,98693.03
2019-03-01T04:42:43.267Z,98686.20
2019-03-01T04:45:16.713Z,98695.09
2019-03-01T04:47:45.412Z,98686.89
2019-03-01T04:50:14.265Z,98690.84
2019-03-01T04:52:43.106Z,98688.41
2019-03-01T04:55:14.714Z,98698.70
2019-03-01T04:57:43.413Z,98694.51
2019-03-01T05:00:15.155Z,98696.66
2019-03-01T05:02:43.840Z,98697.39
2019-03-01T05:05:14.069Z,98695.64
2019-03-01T05:07:42.839Z,98694.43
2019-03-01T05:10:13.081Z,98685.76
2019-03-01T05:12:41.916Z,98685.41
2019-03-01T05:15:19.572Z,98683.92
2019-03-01T05:17:48.335Z,98684.11
2019-03-01T05:20:17.094Z,98697.87
2019-03-01T05:22:45.799Z,98696.30
2019-03-01T05:25:14.558Z,98699.17
2019-03-01T05:27:43.271Z,98715.32
2019-03-01T05:30:14.610Z,98723.84
2019-03-01T05:32:43.321Z,98724.11
2019-03-01T05:35:13.461Z,98727.45
2019-03-01T05:37:42.165Z,98741.22
2019-03-01T05:40:13.029Z,98745.70
2019-03-01T05:42:41.759Z,98742.22
2019-03-01T05:45:25.477Z,98748.52
2019-03-01T05:47:54.276Z,98751.61
2019-03-01T05:50:22.986Z,98766.12
2019-03-01T05:52:51.705Z,98774.80
2019-03-01T05:55:20.474Z,98786.64
2019-03-01T05:58:21.429Z,98783.96
2019-03-01T06:00:53.752Z,98784.96
2019-03-01T06:04:03.396Z,98794.80
2019-03-01T06:06:51.132Z,98783.30
2019-03-01T06:09:53.978Z,98794.61
2019-03-01T06:12:40.003Z,98801.03
2019-03-01T06:15:26.755Z,98809.09
2019-03-01T06:18:18.030Z,98810.66
2019-03-01T06:21:06.280Z,98815.23
2019-03-01T06:23:56.094Z,98817.91
2019-03-01T06:27:02.661Z,98824.39
2019-03-01T06:29:46.302Z,98823.34
2019-03-01T06:32:46.861Z,98823.73
2019-03-01T06:35:21.270Z,98824.26
2019-03-01T06:38:46.310Z,98819.84
2019-03-01T06:41:39.042Z,98823.11
2019-03-01T06:44:26.072Z,98827.14
2019-03-01T06:47:17.370Z,98829.55
2019-03-01T06:50:05.961Z,98837.03
2019-03-01T06:52:34.901Z,98833.67
2019-03-01T06:55:04.570Z,98834.83
2019-03-01T06:57:33.382Z,98838.41
2019-03-01T07:00:06.677Z,98834.27
2019-03-01T07:02:36.973Z,98839.24
2019-03-01T07:05:05.871Z,98841.89
2019-03-01T07:07:34.700Z,98850.98
2019-03-01T07:10:03.643Z,98838.25
2019-03-01T07:12:32.507Z,98834.37
2019-03-01T07:15:06.493Z,98837.58
2019-03-01T07:17:34.676Z,98837.58
2019-03-01T07:20:03.637Z,98833.17
2019-03-01T07:22:32.636Z,98827.47
2019-03-01T07:25:01.429Z,98827.91
2019-03-01T07:27:33.091Z,98825.08
2019-03-01T07:30:01.951Z,98822.99
2019-03-01T07:32:31.023Z,98819.69
2019-03-01T07:34:59.883Z,98817.02
2019-03-01T07:37:28.568Z,98816.54
2019-03-01T07:39:57.258Z,98817.33
2019-03-01T07:42:25.892Z,98818.77
2019-03-01T07:44:54.589Z,98822.56
2019-03-01T07:47:24.865Z,98814.06
2019-03-01T07:49:53.646Z,98815.23
2019-03-01T07:52:22.419Z,98810.83
2019-03-01T07:54:52.906Z,98807.00
2019-03-01T07:57:21.866Z,98808.84
2019-03-01T07:59:50.793Z,98804.70
2019-03-01T08:02:19.550Z,98805.70
2019-03-01T08:04:48.126Z,98805.18
2019-03-01T08:07:16.897Z,98798.72
2019-03-01T08:09:45.703Z,98799.05
2019-03-01T08:12:14.414Z,98793.25
2019-03-01T08:14:44.968Z,98795.02
2019-03-01T08:17:13.882Z,98798.69
2019-03-01T08:19:42.887Z,98802.06
2019-03-01T08:22:20.903Z,98792.75
2019-03-01T08:24:52.278Z,98789.11
2019-03-01T08:27:21.056Z,98791.52
2019-03-01T08:29:55.824Z,98790.70
2019-03-01T08:32:31.818Z,98790.75
2019-03-01T08:35:01.247Z,98776.88
2019-03-01T08:37:32.180Z,98773.34
2019-03-01T08:40:04.051Z,98783.21
2019-03-01T08:42:36.374Z,98773.61
2019-03-01T08:45:12.969Z,98773.12
2019-03-01T08:47:41.972Z,98769.73
2019-03-01T08:50:13.675Z,98767.98
2019-03-01T08:52:46.527Z,98768.90
2019-03-01T08:55:35.437Z,98763.53
2019-03-01T08:58:06.803Z,98766.92
2019-03-01T09:00:37.274Z,98758.00
2019-03-01T09:03:22.204Z,98761.91
2019-03-01T09:05:48.846Z,98754.89
2019-03-01T09:08:20.768Z,98754.05
2019-03-01T09:10:49.891Z,98750.59
2019-03-01T09:13:18.713Z,98755.44
2019-03-01T09:15:49.482Z,98746.72
2019-03-01T09:18:29.286Z,98750.02
2019-03-01T09:21:05.491Z,98751.23
2019-03-01T09:23:30.378Z,98750.23
2019-03-01T09:25:59.332Z,98753.91
2019-03-01T09:28:28.326Z,98754.70
2019-03-01T09:30:57.279Z,98747.87
2019-03-01T09:33:26.279Z,98749.72
2019-03-01T09:35:56.835Z,98744.19
2019-03-01T09:38:25.879Z,98745.23
2019-03-01T09:40:57.702Z,98737.70
2019-03-01T09:43:28.723Z,98741.36
2019-03-01T09:46:10.212Z,98745.20
2019-03-01T09:48:36.540Z,98738.72
2019-03-01T09:51:17.978Z,98744.56
2019-03-01T09:53:48.550Z,98739.66
2019-03-01T09:56:17.508Z,98735.95
2019-03-01T09:58:46.404Z,98735.49
2019-03-01T10:01:18.899Z,98729.91
2019-03-01T10:03:47.680Z,98723.66
2019-03-01T10:06:16.379Z,98721.34
2019-03-01T10:08:45.319Z,98713.36
2019-03-01T10:11:14.080Z,98714.14
2019-03-01T10:13:42.760Z,98709.16
2019-03-01T10:16:11.368Z,98703.44
2019-03-01T10:18:39.985Z,98715.92
2019-03-01T10:21:08.679Z,98710.88
2019-03-01T10:23:37.297Z,98707.85
2019-03-01T10:26:05.997Z,98706.12
2019-03-01T10:28:34.492Z,98702.16
2019-03-01T10:31:03.155Z,98708.59
2019-03-01T10:33:31.637Z,98709.39
2019-03-01T10:36:00.458Z,98699.14
2019-03-01T10:38:35.927Z,98701.91
2019-03-01T10:41:06.069Z,98693.94
2019-03-01T10:43:36.544Z,98690.12
2019-03-01T10:46:05.583Z,98696.65
2019-03-01T10:48:38.363Z,98682.73
2019-03-01T10:51:13.232Z,98685.25
2019-03-01T10:53:54.567Z,98680.73
2019-03-01T10:56:35.182Z,98672.70
2019-03-01T10:59:04.781Z,98682.97
2019-03-01T11:01:34.033Z,98679.64
2019-03-01T11:04:05.787Z,98684.39
2019-03-01T11:06:34.959Z,98671.76
2019-03-01T11:09:04.786Z,98676.09
2019-03-01T11:11:33.474Z,98672.51
2019-03-01T11:14:05.647Z,98664.17
2019-03-01T11:16:34.461Z,98662.59
2019-03-01T11:19:03.199Z,98659.73
2019-03-01T11:21:31.884Z,98652.56
2019-03-01T11:24:00.628Z,98653.41
2019-03-01T11:26:29.923Z,98636.81
2019-03-01T11:28:58.725Z,98640.55
2019-03-01T11:31:30.547Z,98642.33
2019-03-01T11:33:59.457Z,98630.22
2019-03-01T11:36:28.560Z,98616.89
2019-03-01T11:39:00.019Z,98630.92
2019-03-01T11:41:29.026Z,98626.16
2019-03-01T11:43:57.803Z,98627.88
2019-03-01T11:46:26.976Z,98640.82
2019-03-01T11:48:55.828Z,98635.67
2019-03-01T11:51:24.814Z,98623.63
2019-03-01T11:53:53.797Z,98621.94
2019-03-01T11:56:22.493Z,98620.14
2019-03-01T11:58:52.706Z,98615.97
2019-03-01T12:01:21.502Z,98610.09
2019-03-01T12:03:50.285Z,98607.28
2019-03-01T12:06:21.837Z,98602.30
2019-03-01T12:08:50.543Z,98593.74
2019-03-01T12:11:19.262Z,98590.19
2019-03-01T12:13:48.688Z,98588.77
2019-03-01T12:16:17.508Z,98594.37
2019-03-01T12:18:46.258Z,98586.71
2019-03-01T12:21:14.998Z,98578.97
2019-03-01T12:23:45.382Z,98581.40
2019-03-01T12:26:14.138Z,98592.45
2019-03-01T12:28:44.391Z,98579.69
2019-03-01T12:31:13.147Z,98577.53
2019-03-01T12:33:43.396Z,98580.20
2019-03-01T12:36:15.274Z,98568.56
2019-03-01T12:38:47.846Z,98565.63
2019-03-01T12:41:17.103Z,98563.62
2019-03-01T12:43:47.109Z,98570.02
2019-03-01T12:46:15.932Z,98565.51
2019-03-01T12:48:45.758Z,98559.05
2019-03-01T12:51:14.483Z,98554.00
2019-03-01T12:53:43.331Z,98560.60
2019-03-01T12:56:12.330Z,98559.67
2019-03-01T12:58:41.129Z,98562.69
2019-03-01T13:01:09.744Z,98558.47
2019-03-01T13:03:40.570Z,98553.52
2019-03-01T13:06:08.802Z,98553.05
2019-03-01T13:08:41.699Z,98549.25
2019-03-01T13:11:12.598Z,98548.08
2019-03-01T13:13:40.911Z,98541.84
2019-03-01T13:16:09.672Z,98542.53
2019-03-01T13:18:38.450Z,98538.84
2019-03-01T13:21:09.568Z,98534.98
2019-03-01T13:23:40.420Z,98529.92
2019-03-01T13:26:08.418Z,98532.74
2019-03-01T13:28:37.079Z,98532.44
2019-03-01T13:31:08.119Z,98525.19
2019-03-01T13:33:37.469Z,98531.22
2019-03-01T13:36:06.757Z,98526.70
2019-03-01T13:38:35.893Z,98522.90
2019-03-01T13:41:04.853Z,98525.96
2019-03-01T13:43:33.556Z,98520.34
2019-03-01T13:46:02.317Z,98514.52
2019-03-01T13:48:34.381Z,98519.36
2019-03-01T13:51:03.098Z,98516.43
2019-03-01T13:53:33.344Z,98516.11
2019-03-01T13:56:02.180Z,98511.16
2019-03-01T13:58:30.824Z,98512.12
2019-03-01T14:00:59.460Z,98514.63
2019-03-01T14:03:28.153Z,98514.12
2019-03-01T14:05:56.814Z,98507.93
2019-03-01T14:08:25.358Z,98510.44
2019-03-01T14:10:58.543Z,98507.42
2019-03-01T14:13:29.179Z,98503.22
2019-03-01T14:15:57.598Z,98493.91
2019-03-01T14:18:27.445Z,98492.75
2019-03-01T14:20:58.130Z,98483.13
2019-03-01T14:23:26.366Z,98487.39
2019-03-01T14:25:54.994Z,98482.13
2019-03-01T14:28:23.675Z,98485.74
2019-03-01T14:30:52.223Z,98480.89
2019-03-01T14:33:20.780Z,98472.85
2019-03-01T14:35:49.291Z,98471.55
2019-03-01T14:38:20.724Z,98476.84
2019-03-01T14:40:49.356Z,98470.74
2019-03-01T14:43:20.182Z,98463.61
2019-03-01T14:45:48.368Z,98463.62
2019-03-01T14:48:16.973Z,98469.99
2019-03-01T14:50:49.007Z,98463.75
2019-03-01T14:53:18.291Z,98468.69
2019-03-01T14:55:58.815Z,98463.75
2019-03-01T14:58:38.049Z,98469.06
2019-03-01T15:01:18.373Z,98463.63
2019-03-01T15:03:49.719Z,98469.77
2019-03-01T15:06:19.208Z,98468.66
2019-03-01T15:08:47.673Z,98471.23
2019-03-01T15:11:16.291Z,98473.69
2019-03-01T15:13:47.716Z,98479.80
2019-03-01T15:16:16.325Z,98477.52
2019-03-01T15:18:45.037Z,98485.08
2019-03-01T15:21:16.460Z,98486.89
2019-03-01T15:23:45.121Z,98487.39
2019-03-01T15:26:13.737Z,98490.95
2019-03-01T15:28:55.212Z,98492.80
2019-03-01T15:31:23.491Z,98489.97
2019-03-01T15:33:52.179Z,98493.43
2019-03-01T15:36:20.822Z,98491.70
2019-03-01T15:38:49.458Z,98497.33
2019-03-01T15:41:18.105Z,98499.61
2019-03-01T15:43:46.690Z,98498.41
2019-03-01T15:46:15.503Z,98494.93
2019-03-01T15:48:44.219Z,98498.34
2019-03-01T15:51:12.854Z,98509.58
2019-03-01T15:53:41.534Z,98505.58
2019-03-01T15:56:10.169Z,98510.49
2019-03-01T15:58:38.850Z,98510.13
2019-03-01T16:01:11.080Z,98517.36
2019-03-01T16:03:39.464Z,98513.33
2019-03-01T16:06:10.369Z,98513.58
2019-03-01T16:08:38.385Z,98517.71
2019-03-01T16:11:09.259Z,98526.73
2019-03-01T16:13:37.335Z,98518.63
2019-03-01T16:16:05.972Z,98523.64
2019-03-01T16:18:35.353Z,98531.75
2019-03-01T16:21:06.086Z,98529.40
2019-03-01T16:23:34.864Z,98526.16
2019-03-01T16:26:03.424Z,98531.23
2019-03-01T16:28:32.394Z,98529.91
2019-03-01T16:31:01.005Z,98538.51
2019-03-01T16:33:30.038Z,98534.27
2019-03-01T16:36:00.918Z,98536.58
2019-03-01T16:38:29.169Z,98545.63
2019-03-01T16:40:57.709Z,98546.96
2019-03-01T16:43:28.544Z,98549.19
2019-03-01T16:45:57.455Z,98551.88
2019-03-01T16:48:32.567Z,98552.70
2019-03-01T16:51:01.138Z,98556.36
2019-03-01T16:53:29.704Z,98561.17
2019-03-01T16:55:59.251Z,98565.14
2019-03-01T16:58:29.175Z,98572.73
2019-03-01T17:00:57.893Z,98574.94
2019-03-01T17:03:29.621Z,98576.88
2019-03-01T17:05:58.231Z,98581.55
2019-03-01T17:08:26.771Z,98583.80
2019-03-01T17:10:58.062Z,98584.03
2019-03-01T17:13:27.107Z,98590.05
2019-03-01T17:15:56.611Z,98591.99
2019-03-01T17:18:27.924Z,98598.87
2019-03-01T17:20:56.599Z,98599.50
2019-03-01T17:23:25.300Z,98597.25
2019-03-01T17:25:53.860Z,98595.89
2019-03-01T17:28:26.371Z,98593.27
2019-03-01T17:30:52.825Z,98590.95
2019-03-01T17:33:21.506Z,98597.61
2019-03-01T17:35:50.121Z,98595.28
2019-03-01T17:38:24.054Z,98602.81
2019-03-01T17:40:52.714Z,98607.96
2019-03-01T17:43:21.286Z,98609.44
2019-03-01T17:45:54.449Z,98616.78
2019-03-01T17:48:22.909Z,98611.97
2019-03-01T17:50:51.531Z,98614.13
2019-03-01T17:53:20.108Z,98621.41
2019-03-01T17:55:48.713Z,98617.58
2019-03-01T17:58:17.285Z,98620.58
2019-03-01T18:00:47.744Z,98633.23
2019-03-01T18:03:16.442Z,98633.48
2019-03-01T18:05:45.101Z,98635.63
2019-03-01T18:08:14.074Z,98637.27
2019-03-01T18:10:42.720Z,98636.27
2019-03-01T18:13:15.074Z,98639.55
2019-03-01T18:15:45.076Z,98637.93
2019-03-01T18:18:14.043Z,98647.41
2019-03-01T18:20:42.607Z,98641.27
2019-03-01T18:23:11.094Z,98639.14
2019-03-01T18:25:39.662Z,98649.61
2019-03-01T18:28:08.345Z,98650.59
2019-03-01T18:30:36.982Z,98645.73
2019-03-01T18:33:05.642Z,98654.62
2019-03-01T18:35:34.279Z,98659.43
2019-03-01T18:38:02.788Z,98658.36
2019-03-01T18:40:31.420Z,98660.40
2019-03-01T18:43:00.060Z,98652.37
2019-03-01T18:45:28.972Z,98654.27
2019-03-01T18:47:57.669Z,98657.53
2019-03-01T18:50:34.579Z,98649.66
2019-03-01T18:53:04.343Z,98656.66
2019-03-01T18:55:33.252Z,98651.05
2019-03-01T18:58:01.879Z,98655.66
2019-03-01T19:00:44.900Z,98654.27
2019-03-01T19:03:13.526Z,98659.81
2019-03-01T19:05:42.158Z,98660.59
2019-03-01T19:08:10.795Z,98661.71
2019-03-01T19:10:39.598Z,98663.69
2019-03-01T19:13:08.338Z,98661.33
2019-03-01T19:15:39.799Z,98668.12
2019-03-01T19:18:08.480Z,98666.53
2019-03-01T19:20:48.316Z,98674.41
2019-03-01T19:23:16.992Z,98681.47
2019-03-01T19:25:45.624Z,98682.84
2019-03-01T19:28:14.295Z,98679.39
2019-03-01T19:30:45.905Z,98689.83
2019-03-01T19:33:13.276Z,98689.75
2019-03-01T19:35:41.833Z,98689.70
2019-03-01T19:38:10.498Z,98688.83
2019-03-01T19:40:43.309Z,98691.48
2019-03-01T19:43:12.342Z,98694.88
2019-03-01T19:45:41.546Z,98690.56
2019-03-01T19:48:10.236Z,98698.09
2019-03-01T19:50:38.916Z,98698.70
2019-03-01T19:53:07.468Z,98706.27
2019-03-01T19:55:36.063Z,98703.14
2019-03-01T19:58:04.696Z,98709.55
2019-03-01T20:00:34.843Z,98710.98
2019-03-01T20:03:06.595Z,98706.27
2019-03-01T20:05:38.341Z,98708.08
2019-03-01T20:08:07.021Z,98712.14
2019-03-01T20:10:36.953Z,98711.45
2019-03-01T20:13:05.655Z,98707.86
2019-03-01T20:15:34.286Z,98710.04
2019-03-01T20:18:02.922Z,98715.36
2019-03-01T20:20:33.505Z,98714.67
2019-03-01T20:23:01.852Z,98714.29
2019-03-01T20:25:30.476Z,98715.41
2019-03-01T20:28:01.941Z,98716.03
2019-03-01T20:30:32.071Z,98716.56
2019-03-01T20:33:00.750Z,98712.53
2019-03-01T20:35:29.297Z,98717.03
2019-03-01T20:38:00.086Z,98714.55
2019-03-01T20:40:28.725Z,98715.98
2019-03-01T20:43:00.172Z,98717.11
2019-03-01T20:45:34.707Z,98711.66
2019-03-01T20:48:03.228Z,98704.62
2019-03-01T20:50:31.966Z,98703.38
2019-03-01T20:53:00.584Z,98708.88
2019-03-01T20:55:29.260Z,98702.42
2019-03-01T20:57:59.715Z,98703.48
2019-03-01T21:00:29.979Z,98700.08
2019-03-01T21:02:58.838Z,98690.40
2019-03-01T21:05:28.848Z,98693.80
2019-03-01T21:07:57.846Z,98699.91
2019-03-01T21:10:27.823Z,98704.70
2019-03-01T21:12:56.496Z,98697.91
2019-03-01T21:15:25.193Z,98705.02
2019-03-01T21:17:57.107Z,98704.55
2019-03-01T21:20:24.126Z,98703.37
2019-03-01T21:22:52.803Z,98706.61
2019-03-01T21:25:24.929Z,98700.47
2019-03-01T21:27:53.601Z,98697.52
2019-03-01T21:30:24.799Z,98705.61
2019-03-01T21:32:53.688Z,98710.64
2019-03-01T21:35:22.503Z,98707.48
2019-03-01T21:37:54.941Z,98708.13
2019-03-01T21:40:23.575Z,98712.70
2019-03-01T21:42:52.927Z,98712.97
2019-03-01T21:45:24.722Z,98708.71
2019-03-01T21:47:53.398Z,98703.63
2019-03-01T21:50:22.102Z,98699.98
2019-03-01T21:52:50.740Z,98702.59
2019-03-01T21:55:24.981Z,98700.86
2019-03-01T21:57:54.092Z,98702.88
2019-03-01T22:00:25.211Z,98710.16
2019-03-01T22:02:54.707Z,98705.74
2019-03-01T22:05:23.325Z,98704.67
2019-03-01T22:07:52.445Z,98708.08
2019-03-01T22:10:21.076Z,98702.70
2019-03-01T22:12:49.702Z,98709.61
2019-03-01T22:15:21.507Z,98715.09
2019-03-01T22:17:51.642Z,98712.56
2019-03-01T22:20:21.111Z,98707.16
2019-03-01T22:22:49.610Z,98705.94
2019-03-01T22:25:18.284Z,98700.72
2019-03-01T22:27:46.960Z,98698.95
2019-03-01T22:30:32.698Z,98700.88
2019-03-01T22:33:01.308Z,98696.62
2019-03-01T22:35:32.700Z,98702.87
2019-03-01T22:38:04.591Z,98699.64
2019-03-01T22:40:31.657Z,98700.35
2019-03-01T22:43:00.188Z,98701.34
2019-03-01T22:45:28.825Z,98690.11
2019-03-01T22:47:57.507Z,98692.67
2019-03-01T22:50:26.142Z,98683.84
2019-03-01T22:52:54.707Z,98689.02
2019-03-01T22:55:23.390Z,98687.39
2019-03-01T22:57:52.032Z,98677.16
2019-03-01T23:00:27.755Z,98679.69
2019-03-01T23:02:59.044Z,98683.02
2019-03-01T23:05:27.598Z,98690.77
2019-03-01T23:07:56.950Z,98691.98
2019-03-01T23:10:26.475Z,98682.75
2019-03-01T23:12:55.084Z,98687.03
2019-03-01T23:15:23.641Z,98686.41
2019-03-01T23:17:52.129Z,98689.56
2019-03-01T23:20:26.289Z,98696.55
2019-03-01T23:22:51.151Z,98698.84
2019-03-01T23:25:19.700Z,98698.72
2019-03-01T23:27:48.604Z,98693.97
2019-03-01T23:30:17.442Z,98693.52
2019-03-01T23:32:48.738Z,98707.73
2019-03-01T23:35:18.133Z,98704.55
2019-03-01T23:37:46.668Z,98706.36
2019-03-01T23:40:15.619Z,98696.55
2019-03-01T23:42:44.282Z,98696.96
2019-03-01T23:45:13.649Z,98707.73
2019-03-01T23:47:43.229Z,98702.68
2019-03-01T23:50:11.791Z,98704.78
2019-03-01T23:52:40.439Z,98699.84
2019-03-01T23:55:09.362Z,98695.16
2019-03-01T23:57:40.988Z,98695.81
